Дата Пункты Температура Давл., мм. Влажн., % Ветер Погодные явления
Воздуха Воды Направл. Скорость
24.10.18 06:00 Одесса 12.0 14.0 746 69 З 2 06 ЧАСОВ
24.10.18 03:00 Одесса 13.0 14.0 749 68 З 3 03 ЧАСА
23.10.18 09:00 Одесса 13.0 14.0 754 69 Пд-З 1 21 ЧАС
23.10.18 06:00 Одесса 14.0 14.0 757 66 Пн 0 18 ЧАСОВ
23.10.18 03:00 Одесса 16.0 14.0 758 46 Пн 0 15 ЧАСОВ
23.10.18 12:00 Одесса 15.0 14.0 761 46 Пн-З 2 12 ЧАСОВ
23.10.18 09:00 Одесса 9.0 14.0 761 69 Пн 0 09 ЧАСОВ
23.10.18 06:00 Одесса 8.0 15.0 761 80 Пн-З 1 06 ЧАСОВ
23.10.18 03:00 Одесса 11.0 15.0 761 67 Пн 0 03 ЧАСА
22.10.18 09:00 Одесса 13.0 15.0 762 65 Пн-З 1 21 ЧАС
22.10.18 06:00 Одесса 15.0 15.0 762 61 Пн 0 18 ЧАСОВ
22.10.18 03:00 Одесса 18.0 15.0 762 56 Пн 1 15 ЧАСОВ
22.10.18 12:00 Одесса 16.0 15.0 763 59 Пн 1 12 ЧАСОВ
22.10.18 09:00 Одесса 11.0 15.0 763 76 Пн-З 3 09 ЧАСОВ
22.10.18 06:00 Одесса 12.0 15.0 762 75 Пн-З 3 06 ЧАСОВ
22.10.18 03:00 Одесса 12.0 15.0 762 73 Пн-З 3 03 ЧАСА
21.10.18 09:00 Одесса 14.0 15.0 761 70 Пн-З 3 21 ЧАС
21.10.18 06:00 Одесса 16.0 15.0 760 68 Пн-З 1 18 ЧАСОВ
21.10.18 03:00 Одесса 18.0 15.0 760 68 Пн 1 15 ЧАСОВ
21.10.18 12:00 Одесса 16.0 15.0 760 70 Пн 2 12 ЧАСОВ
Количество строк
1 2 3 4 5 6 7 8 9 10
Page 10 of 426